sensor_id;sensor_type;location;lat;lon;timestamp;pressure;altitude;pressure_sealevel;temperature;humidity
8101;BME280;4093;53.470;9.832;2024-03-07T00:01:02;102794.88;;;4.17;79.79
8101;BME280;4093;53.470;9.832;2024-03-07T00:03:30;102802.31;;;4.32;79.65
8101;BME280;4093;53.470;9.832;2024-03-07T00:05:58;102807.78;;;4.61;78.91
8101;BME280;4093;53.470;9.832;2024-03-07T00:08:26;102806.50;;;4.72;79.24
8101;BME280;4093;53.470;9.832;2024-03-07T00:10:53;102798.50;;;4.85;79.85
8101;BME280;4093;53.470;9.832;2024-03-07T00:13:22;102810.66;;;5.12;79.67
8101;BME280;4093;53.470;9.832;2024-03-07T00:15:51;102807.81;;;5.27;78.95
8101;BME280;4093;53.470;9.832;2024-03-07T00:18:19;102787.25;;;5.04;80.13
8101;BME280;4093;53.470;9.832;2024-03-07T00:20:47;102792.13;;;5.19;85.16
8101;BME280;4093;53.470;9.832;2024-03-07T00:23:14;102807.47;;;5.42;82.02
8101;BME280;4093;53.470;9.832;2024-03-07T00:25:43;102816.34;;;5.50;85.41
8101;BME280;4093;53.470;9.832;2024-03-07T00:28:11;102805.22;;;5.73;83.02
8101;BME280;4093;53.470;9.832;2024-03-07T00:30:39;102795.19;;;5.79;81.75
8101;BME280;4093;53.470;9.832;2024-03-07T00:33:08;102800.03;;;5.94;81.55
8101;BME280;4093;53.470;9.832;2024-03-07T00:35:36;102787.47;;;5.79;82.20
8101;BME280;4093;53.470;9.832;2024-03-07T00:38:03;102783.16;;;5.54;83.54
8101;BME280;4093;53.470;9.832;2024-03-07T00:40:32;102783.38;;;5.61;82.72
8101;BME280;4093;53.470;9.832;2024-03-07T00:43:00;102794.22;;;6.00;84.38
8101;BME280;4093;53.470;9.832;2024-03-07T00:45:27;102765.19;;;5.54;85.38
8101;BME280;4093;53.470;9.832;2024-03-07T00:47:55;102792.94;;;5.89;87.59
8101;BME280;4093;53.470;9.832;2024-03-07T00:50:24;102794.22;;;6.00;85.35
8101;BME280;4093;53.470;9.832;2024-03-07T00:52:52;102785.16;;;6.10;84.04
8101;BME280;4093;53.470;9.832;2024-03-07T00:55:20;102789.97;;;6.00;86.37
8101;BME280;4093;53.470;9.832;2024-03-07T00:57:48;102791.03;;;6.33;85.33
8101;BME280;4093;53.470;9.832;2024-03-07T01:00:16;102787.41;;;6.26;85.41
8101;BME280;4093;53.470;9.832;2024-03-07T01:02:47;102781.50;;;6.29;85.63
8101;BME280;4093;53.470;9.832;2024-03-07T01:05:16;102786.00;;;6.36;87.25
8101;BME280;4093;53.470;9.832;2024-03-07T01:07:45;102794.09;;;6.21;87.97
8101;BME280;4093;53.470;9.832;2024-03-07T01:10:14;102792.19;;;6.41;87.49
8101;BME280;4093;53.470;9.832;2024-03-07T01:12:42;102770.91;;;5.94;90.84
8101;BME280;4093;53.470;9.832;2024-03-07T01:15:10;102786.25;;;5.92;93.10
8101;BME280;4093;53.470;9.832;2024-03-07T01:17:39;102787.28;;;6.48;89.66
8101;BME280;4093;53.470;9.832;2024-03-07T01:20:08;102785.91;;;6.33;90.84
8101;BME280;4093;53.470;9.832;2024-03-07T01:22:38;102762.38;;;6.20;91.24
8101;BME280;4093;53.470;9.832;2024-03-07T01:25:07;102784.94;;;6.29;91.39
8101;BME280;4093;53.470;9.832;2024-03-07T01:27:35;102784.94;;;6.82;89.17
8101;BME280;4093;53.470;9.832;2024-03-07T01:30:04;102772.53;;;6.68;89.41
8101;BME280;4093;53.470;9.832;2024-03-07T01:32:34;102756.00;;;6.35;91.70
8101;BME280;4093;53.470;9.832;2024-03-07T01:35:02;102776.16;;;6.22;93.09
8101;BME280;4093;53.470;9.832;2024-03-07T01:37:30;102773.28;;;6.93;90.20
8101;BME280;4093;53.470;9.832;2024-03-07T01:39:57;102772.72;;;6.75;91.07
8101;BME280;4093;53.470;9.832;2024-03-07T01:42:26;102774.91;;;7.18;88.52
8101;BME280;4093;53.470;9.832;2024-03-07T01:44:54;102765.81;;;6.73;91.76
8101;BME280;4093;53.470;9.832;2024-03-07T01:47:22;102771.78;;;7.00;89.86
8101;BME280;4093;53.470;9.832;2024-03-07T01:49:50;102768.94;;;6.63;92.13
8101;BME280;4093;53.470;9.832;2024-03-07T01:52:18;102753.59;;;6.93;90.26
8101;BME280;4093;53.470;9.832;2024-03-07T01:54:46;102753.78;;;6.72;92.13
8101;BME280;4093;53.470;9.832;2024-03-07T01:57:14;102731.38;;;6.41;92.27
8101;BME280;4093;53.470;9.832;2024-03-07T01:59:45;102752.59;;;6.61;93.20
8101;BME280;4093;53.470;9.832;2024-03-07T02:02:13;102752.44;;;6.84;92.98
8101;BME280;4093;53.470;9.832;2024-03-07T02:04:41;102758.31;;;7.38;89.58
8101;BME280;4093;53.470;9.832;2024-03-07T02:07:09;102735.88;;;6.76;92.12
8101;BME280;4093;53.470;9.832;2024-03-07T02:09:37;102744.72;;;6.84;91.96
8101;BME280;4093;53.470;9.832;2024-03-07T02:12:06;102747.56;;;6.93;92.07
8101;BME280;4093;53.470;9.832;2024-03-07T02:14:35;102739.03;;;6.94;93.34
8101;BME280;4093;53.470;9.832;2024-03-07T02:17:05;102737.38;;;7.56;90.07
8101;BME280;4093;53.470;9.832;2024-03-07T02:19:33;102729.28;;;7.12;91.78
8101;BME280;4093;53.470;9.832;2024-03-07T02:22:02;102737.53;;;7.31;91.46
8101;BME280;4093;53.470;9.832;2024-03-07T02:24:29;102738.84;;;7.47;89.52
8101;BME280;4093;53.470;9.832;2024-03-07T02:26:58;102716.75;;;6.39;94.67
8101;BME280;4093;53.470;9.832;2024-03-07T02:29:26;102722.91;;;6.71;93.23
8101;BME280;4093;53.470;9.832;2024-03-07T02:31:54;102716.13;;;6.46;95.91
8101;BME280;4093;53.470;9.832;2024-03-07T02:34:22;102717.69;;;6.68;94.49
8101;BME280;4093;53.470;9.832;2024-03-07T02:36:50;102724.72;;;7.04;94.31
8101;BME280;4093;53.470;9.832;2024-03-07T02:39:19;102706.91;;;7.10;92.24
8101;BME280;4093;53.470;9.832;2024-03-07T02:41:47;102696.38;;;6.72;93.97
8101;BME280;4093;53.470;9.832;2024-03-07T02:44:16;102702.47;;;6.47;95.23
8101;BME280;4093;53.470;9.832;2024-03-07T02:46:44;102717.69;;;6.98;94.14
8101;BME280;4093;53.470;9.832;2024-03-07T02:49:12;102711.13;;;7.38;91.47
8101;BME280;4093;53.470;9.832;2024-03-07T02:51:41;102716.69;;;7.53;90.80
8101;BME280;4093;53.470;9.832;2024-03-07T02:54:08;102707.34;;;7.55;90.31
8101;BME280;4093;53.470;9.832;2024-03-07T02:56:37;102690.47;;;7.35;89.29
8101;BME280;4093;53.470;9.832;2024-03-07T02:59:05;102699.47;;;7.19;90.83
8101;BME280;4093;53.470;9.832;2024-03-07T03:01:33;102693.31;;;6.84;93.17
8101;BME280;4093;53.470;9.832;2024-03-07T03:04:01;102698.00;;;7.27;89.80
8101;BME280;4093;53.470;9.832;2024-03-07T03:06:29;102686.88;;;6.69;92.14
8101;BME280;4093;53.470;9.832;2024-03-07T03:08:57;102702.53;;;7.07;91.84
8101;BME280;4093;53.470;9.832;2024-03-07T03:11:25;102709.78;;;7.21;90.78
8101;BME280;4093;53.470;9.832;2024-03-07T03:13:55;102700.25;;;7.16;91.96
8101;BME280;4093;53.470;9.832;2024-03-07T03:16:22;102703.91;;;7.25;91.92
8101;BME280;4093;53.470;9.832;2024-03-07T03:19:09;102685.13;;;6.99;92.62
8101;BME280;4093;53.470;9.832;2024-03-07T03:21:37;102669.38;;;6.58;93.48
8101;BME280;4093;53.470;9.832;2024-03-07T03:24:05;102685.31;;;7.05;91.37
8101;BME280;4093;53.470;9.832;2024-03-07T03:26:33;102686.94;;;7.01;92.22
8101;BME280;4093;53.470;9.832;2024-03-07T03:29:03;102672.38;;;6.71;92.76
8101;BME280;4093;53.470;9.832;2024-03-07T03:31:32;102691.84;;;7.24;91.48
8101;BME280;4093;53.470;9.832;2024-03-07T03:34:00;102667.47;;;7.09;91.59
8101;BME280;4093;53.470;9.832;2024-03-07T03:36:27;102674.94;;;7.32;91.09
8101;BME280;4093;53.470;9.832;2024-03-07T03:38:55;102661.13;;;6.98;91.93
8101;BME280;4093;53.470;9.832;2024-03-07T03:41:23;102655.63;;;6.29;94.03
8101;BME280;4093;53.470;9.832;2024-03-07T03:43:51;102668.75;;;6.38;94.72
8101;BME280;4093;53.470;9.832;2024-03-07T03:46:22;102679.91;;;6.65;93.85
8101;BME280;4093;53.470;9.832;2024-03-07T03:48:50;102671.75;;;7.40;89.96
8101;BME280;4093;53.470;9.832;2024-03-07T03:51:18;102659.63;;;6.76;91.74
8101;BME280;4093;53.470;9.832;2024-03-07T03:53:48;102651.06;;;6.47;93.76
8101;BME280;4093;53.470;9.832;2024-03-07T03:56:16;102643.44;;;6.21;93.31
8101;BME280;4093;53.470;9.832;2024-03-07T03:58:44;102663.63;;;6.38;94.79
8101;BME280;4093;53.470;9.832;2024-03-07T04:01:13;102671.16;;;6.60;93.18
8101;BME280;4093;53.470;9.832;2024-03-07T04:03:43;102676.09;;;6.81;92.34
8101;BME280;4093;53.470;9.832;2024-03-07T04:06:13;102645.53;;;6.33;93.41
8101;BME280;4093;53.470;9.832;2024-03-07T04:08:41;102665.91;;;6.86;92.08
8101;BME280;4093;53.470;9.832;2024-03-07T04:11:09;102674.13;;;7.03;90.81
8101;BME280;4093;53.470;9.832;2024-03-07T04:13:38;102652.88;;;7.08;89.73
8101;BME280;4093;53.470;9.832;2024-03-07T04:16:06;102667.72;;;6.88;91.17
8101;BME280;4093;53.470;9.832;2024-03-07T04:18:35;102668.38;;;6.53;93.23
8101;BME280;4093;53.470;9.832;2024-03-07T04:21:04;102653.72;;;6.21;94.52
8101;BME280;4093;53.470;9.832;2024-03-07T04:23:32;102649.47;;;6.23;93.28
8101;BME280;4093;53.470;9.832;2024-03-07T04:25:59;102669.44;;;6.59;92.42
8101;BME280;4093;53.470;9.832;2024-03-07T04:28:27;102662.00;;;6.40;92.27
8101;BME280;4093;53.470;9.832;2024-03-07T04:30:55;102662.94;;;6.16;93.61
8101;BME280;4093;53.470;9.832;2024-03-07T04:33:23;102661.44;;;5.70;96.06
8101;BME280;4093;53.470;9.832;2024-03-07T04:35:50;102647.91;;;5.50;96.11
8101;BME280;4093;53.470;9.832;2024-03-07T04:38:22;102660.28;;;5.62;95.75
8101;BME280;4093;53.470;9.832;2024-03-07T04:40:50;102662.31;;;5.47;96.46
8101;BME280;4093;53.470;9.832;2024-03-07T04:43:18;102680.81;;;5.62;96.91
8101;BME280;4093;53.470;9.832;2024-03-07T04:45:45;102667.13;;;5.87;94.41
8101;BME280;4093;53.470;9.832;2024-03-07T04:48:13;102679.53;;;5.75;95.14
8101;BME280;4093;53.470;9.832;2024-03-07T04:50:41;102659.22;;;5.31;96.42
8101;BME280;4093;53.470;9.832;2024-03-07T04:53:08;102672.78;;;5.29;96.81
8101;BME280;4093;53.470;9.832;2024-03-07T04:55:37;102686.56;;;5.80;95.21
8101;BME280;4093;53.470;9.832;2024-03-07T04:58:05;102611.19;;;5.02;96.13
8101;BME280;4093;53.470;9.832;2024-03-07T05:00:33;102669.22;;;5.24;96.53
8101;BME280;4093;53.470;9.832;2024-03-07T05:03:00;102662.81;;;5.13;96.63
8101;BME280;4093;53.470;9.832;2024-03-07T05:05:30;102667.97;;;5.62;94.30
8101;BME280;4093;53.470;9.832;2024-03-07T05:07:58;102687.00;;;6.18;93.25
8101;BME280;4093;53.470;9.832;2024-03-07T05:10:26;102679.13;;;6.41;90.94
8101;BME280;4093;53.470;9.832;2024-03-07T05:12:57;102662.47;;;5.51;94.06
8101;BME280;4093;53.470;9.832;2024-03-07T05:15:25;102672.66;;;5.74;93.93
8101;BME280;4093;53.470;9.832;2024-03-07T05:17:53;102663.94;;;5.45;94.72
8101;BME280;4093;53.470;9.832;2024-03-07T05:20:23;102664.63;;;5.15;94.71
8101;BME280;4093;53.470;9.832;2024-03-07T05:22:50;102667.47;;;4.99;95.03
8101;BME280;4093;53.470;9.832;2024-03-07T05:25:19;102694.16;;;5.77;93.71
8101;BME280;4093;53.470;9.832;2024-03-07T05:27:48;102695.94;;;6.04;90.29
8101;BME280;4093;53.470;9.832;2024-03-07T05:30:18;102685.31;;;5.69;92.11
8101;BME280;4093;53.470;9.832;2024-03-07T05:32:48;102662.84;;;4.90;93.33
8101;BME280;4093;53.470;9.832;2024-03-07T05:35:16;102687.22;;;5.49;92.21
8101;BME280;4093;53.470;9.832;2024-03-07T05:37:47;102698.97;;;5.92;91.15
8101;BME280;4093;53.470;9.832;2024-03-07T05:40:17;102690.66;;;5.99;89.51
8101;BME280;4093;53.470;9.832;2024-03-07T05:42:44;102667.00;;;5.10;90.96
8101;BME280;4093;53.470;9.832;2024-03-07T05:45:12;102683.69;;;5.71;87.97
8101;BME280;4093;53.470;9.832;2024-03-07T05:47:42;102674.09;;;4.94;91.08
8101;BME280;4093;53.470;9.832;2024-03-07T05:50:10;102709.69;;;5.80;88.65
8101;BME280;4093;53.470;9.832;2024-03-07T05:52:40;102693.84;;;5.68;87.61
8101;BME280;4093;53.470;9.832;2024-03-07T05:55:08;102669.69;;;5.14;88.61
8101;BME280;4093;53.470;9.832;2024-03-07T05:57:37;102683.75;;;4.78;91.10
8101;BME280;4093;53.470;9.832;2024-03-07T06:00:11;102717.69;;;5.90;87.65
8101;BME280;4093;53.470;9.832;2024-03-07T06:02:42;102687.28;;;5.27;88.06
8101;BME280;4093;53.470;9.832;2024-03-07T06:05:11;102703.09;;;5.89;85.34
8101;BME280;4093;53.470;9.832;2024-03-07T06:07:43;102708.50;;;5.71;87.00
8101;BME280;4093;53.470;9.832;2024-03-07T06:10:12;102700.75;;;5.21;89.28
8101;BME280;4093;53.470;9.832;2024-03-07T06:12:40;102708.41;;;5.69;87.02
8101;BME280;4093;53.470;9.832;2024-03-07T06:15:30;102694.59;;;5.40;87.95
8101;BME280;4093;53.470;9.832;2024-03-07T06:17:59;102697.78;;;5.34;88.18
8101;BME280;4093;53.470;9.832;2024-03-07T06:20:27;102680.50;;;5.05;88.25
8101;BME280;4093;53.470;9.832;2024-03-07T06:22:55;102705.84;;;5.69;86.24
8101;BME280;4093;53.470;9.832;2024-03-07T06:25:23;102707.44;;;5.90;86.21
8101;BME280;4093;53.470;9.832;2024-03-07T06:28:01;102690.16;;;5.36;86.47
8101;BME280;4093;53.470;9.832;2024-03-07T06:30:35;102683.50;;;5.17;87.28
8101;BME280;4093;53.470;9.832;2024-03-07T06:33:05;102708.44;;;5.93;84.61
8101;BME280;4093;53.470;9.832;2024-03-07T06:35:33;102679.53;;;5.49;85.93
8101;BME280;4093;53.470;9.832;2024-03-07T06:38:03;102708.66;;;5.27;87.80
8101;BME280;4093;53.470;9.832;2024-03-07T06:40:32;102699.81;;;5.67;83.77
8101;BME280;4093;53.470;9.832;2024-03-07T06:42:59;102701.22;;;5.11;86.64
8101;BME280;4093;53.470;9.832;2024-03-07T06:45:30;102696.31;;;4.95;87.00
8101;BME280;4093;53.470;9.832;2024-03-07T06:47:58;102697.88;;;4.90;87.37
8101;BME280;4093;53.470;9.832;2024-03-07T06:50:27;102712.75;;;5.00;87.52
8101;BME280;4093;53.470;9.832;2024-03-07T06:53:04;102706.41;;;5.13;85.84
8101;BME280;4093;53.470;9.832;2024-03-07T06:55:33;102710.78;;;5.15;86.07
8101;BME280;4093;53.470;9.832;2024-03-07T06:58:01;102714.38;;;5.68;84.22
8101;BME280;4093;53.470;9.832;2024-03-07T07:00:31;102705.44;;;5.33;84.93
8101;BME280;4093;53.470;9.832;2024-03-07T07:03:02;102695.50;;;5.18;84.50
8101;BME280;4093;53.470;9.832;2024-03-07T07:05:33;102709.56;;;5.05;86.34
8101;BME280;4093;53.470;9.832;2024-03-07T07:08:01;102698.31;;;5.02;85.16
8101;BME280;4093;53.470;9.832;2024-03-07T07:10:31;102724.69;;;5.70;83.01
8101;BME280;4093;53.470;9.832;2024-03-07T07:12:58;102707.91;;;5.30;83.81
8101;BME280;4093;53.470;9.832;2024-03-07T07:15:26;102681.69;;;4.68;84.94
8101;BME280;4093;53.470;9.832;2024-03-07T07:17:54;102736.44;;;5.39;85.23
8101;BME280;4093;53.470;9.832;2024-03-07T07:20:22;102720.53;;;5.25;85.44
8101;BME280;4093;53.470;9.832;2024-03-07T07:22:52;102729.00;;;5.23;84.58
8101;BME280;4093;53.470;9.832;2024-03-07T07:25:20;102728.53;;;5.83;81.88
8101;BME280;4093;53.470;9.832;2024-03-07T07:27:49;102723.19;;;5.04;85.04
8101;BME280;4093;53.470;9.832;2024-03-07T07:30:18;102711.09;;;4.34;86.89
8101;BME280;4093;53.470;9.832;2024-03-07T07:32:46;102722.66;;;4.68;86.07
8101;BME280;4093;53.470;9.832;2024-03-07T07:35:13;102719.38;;;4.50;86.63
8101;BME280;4093;53.470;9.832;2024-03-07T07:37:43;102716.13;;;4.76;84.70
8101;BME280;4093;53.470;9.832;2024-03-07T07:40:14;102701.59;;;3.90;87.09
8101;BME280;4093;53.470;9.832;2024-03-07T07:42:45;102726.06;;;4.46;85.71
8101;BME280;4093;53.470;9.832;2024-03-07T07:45:14;102713.78;;;4.60;83.86
8101;BME280;4093;53.470;9.832;2024-03-07T07:47:43;102723.50;;;4.25;85.53
8101;BME280;4093;53.470;9.832;2024-03-07T07:50:14;102704.47;;;3.98;85.77
8101;BME280;4093;53.470;9.832;2024-03-07T07:52:45;102743.88;;;5.55;81.10
8101;BME280;4093;53.470;9.832;2024-03-07T07:55:16;102708.38;;;5.44;79.46
8101;BME280;4093;53.470;9.832;2024-03-07T07:57:45;102706.25;;;5.32;80.05
8101;BME280;4093;53.470;9.832;2024-03-07T08:00:14;102700.13;;;4.59;83.38
8101;BME280;4093;53.470;9.832;2024-03-07T08:02:52;102713.38;;;4.70;83.99
8101;BME280;4093;53.470;9.832;2024-03-07T08:05:21;102730.91;;;5.28;82.13
8101;BME280;4093;53.470;9.832;2024-03-07T08:07:50;102703.00;;;4.90;82.88
8101;BME280;4093;53.470;9.832;2024-03-07T08:10:20;102674.09;;;4.26;83.12
8101;BME280;4093;53.470;9.832;2024-03-07T08:12:49;102701.22;;;4.44;84.40
8101;BME280;4093;53.470;9.832;2024-03-07T08:15:18;102716.31;;;4.81;83.37
8101;BME280;4093;53.470;9.832;2024-03-07T08:17:47;102723.91;;;4.78;83.94
8101;BME280;4093;53.470;9.832;2024-03-07T08:20:16;102699.22;;;4.15;84.57
8101;BME280;4093;53.470;9.832;2024-03-07T08:22:47;102695.38;;;4.48;83.53
8101;BME280;4093;53.470;9.832;2024-03-07T08:25:18;102700.25;;;4.41;83.52
8101;BME280;4093;53.470;9.832;2024-03-07T08:27:48;102703.91;;;4.26;82.98
8101;BME280;4093;53.470;9.832;2024-03-07T08:30:16;102715.69;;;4.86;81.20
8101;BME280;4093;53.470;9.832;2024-03-07T08:32:46;102708.03;;;4.66;81.36
8101;BME280;4093;53.470;9.832;2024-03-07T08:35:14;102719.69;;;5.02;80.41
8101;BME280;4093;53.470;9.832;2024-03-07T08:37:43;102692.91;;;4.72;80.91
8101;BME280;4093;53.470;9.832;2024-03-07T08:40:12;102705.19;;;4.58;81.37
8101;BME280;4093;53.470;9.832;2024-03-07T08:42:48;102697.56;;;5.28;78.63
8101;BME280;4093;53.470;9.832;2024-03-07T08:45:17;102704.25;;;5.01;80.20
8101;BME280;4093;53.470;9.832;2024-03-07T08:47:46;102708.28;;;4.94;80.25
8101;BME280;4093;53.470;9.832;2024-03-07T08:50:15;102692.59;;;5.09;78.42
8101;BME280;4093;53.470;9.832;2024-03-07T08:52:45;102707.69;;;5.01;80.53
8101;BME280;4093;53.470;9.832;2024-03-07T08:55:15;102672.75;;;4.81;79.81
8101;BME280;4093;53.470;9.832;2024-03-07T08:57:43;102699.50;;;4.87;80.60
8101;BME280;4093;53.470;9.832;2024-03-07T09:00:15;102688.94;;;4.57;81.47
8101;BME280;4093;53.470;9.832;2024-03-07T09:02:50;102713.25;;;5.14;80.94
8101;BME280;4093;53.470;9.832;2024-03-07T09:05:20;102689.94;;;4.61;81.25
8101;BME280;4093;53.470;9.832;2024-03-07T09:07:48;102718.97;;;5.53;79.25
8101;BME280;4093;53.470;9.832;2024-03-07T09:10:17;102698.53;;;4.63;82.06
8101;BME280;4093;53.470;9.832;2024-03-07T09:12:45;102709.97;;;4.94;80.90
8101;BME280;4093;53.470;9.832;2024-03-07T09:15:16;102719.09;;;5.56;79.64
8101;BME280;4093;53.470;9.832;2024-03-07T09:17:45;102714.69;;;5.29;79.43
8101;BME280;4093;53.470;9.832;2024-03-07T09:20:14;102709.25;;;5.20;79.28
8101;BME280;4093;53.470;9.832;2024-03-07T09:22:42;102715.00;;;5.61;77.67
8101;BME280;4093;53.470;9.832;2024-03-07T09:25:11;102713.22;;;5.84;76.13
8101;BME280;4093;53.470;9.832;2024-03-07T09:27:40;102719.81;;;6.27;75.70
8101;BME280;4093;53.470;9.832;2024-03-07T09:30:08;102699.31;;;6.84;72.97
8101;BME280;4093;53.470;9.832;2024-03-07T09:32:40;102685.97;;;5.64;75.82
8101;BME280;4093;53.470;9.832;2024-03-07T09:35:09;102696.09;;;4.88;78.70
8101;BME280;4093;53.470;9.832;2024-03-07T09:37:40;102710.63;;;6.08;75.68
8101;BME280;4093;53.470;9.832;2024-03-07T09:40:10;102685.22;;;4.94;77.32
8101;BME280;4093;53.470;9.832;2024-03-07T09:42:43;102703.16;;;5.65;75.68
8101;BME280;4093;53.470;9.832;2024-03-07T09:45:14;102720.25;;;6.41;74.24
8101;BME280;4093;53.470;9.832;2024-03-07T09:47:46;102686.25;;;5.46;76.43
8101;BME280;4093;53.470;9.832;2024-03-07T09:50:16;102711.13;;;6.23;75.73
8101;BME280;4093;53.470;9.832;2024-03-07T09:52:46;102654.66;;;5.48;76.21
8101;BME280;4093;53.470;9.832;2024-03-07T09:55:16;102684.38;;;5.18;78.06
8101;BME280;4093;53.470;9.832;2024-03-07T09:57:47;102684.50;;;4.76;80.06
8101;BME280;4093;53.470;9.832;2024-03-07T10:00:17;102678.09;;;5.33;78.03
8101;BME280;4093;53.470;9.832;2024-03-07T10:02:53;102712.66;;;6.45;75.99
8101;BME280;4093;53.470;9.832;2024-03-07T10:05:23;102679.06;;;4.89;79.73
8101;BME280;4093;53.470;9.832;2024-03-07T10:07:54;102697.47;;;5.49;79.67
8101;BME280;4093;53.470;9.832;2024-03-07T10:10:23;102673.19;;;5.40;78.55
8101;BME280;4093;53.470;9.832;2024-03-07T10:12:51;102689.06;;;5.53;78.95
8101;BME280;4093;53.470;9.832;2024-03-07T10:15:20;102677.81;;;5.50;79.03
8101;BME280;4093;53.470;9.832;2024-03-07T10:17:49;102701.09;;;6.31;77.91
8101;BME280;4093;53.470;9.832;2024-03-07T10:20:19;102693.28;;;7.12;73.86
8101;BME280;4093;53.470;9.832;2024-03-07T10:22:49;102657.53;;;4.85;80.92
8101;BME280;4093;53.470;9.832;2024-03-07T10:25:17;102667.78;;;5.08;82.03
8101;BME280;4093;53.470;9.832;2024-03-07T10:27:47;102703.53;;;5.27;82.87
8101;BME280;4093;53.470;9.832;2024-03-07T10:30:16;102711.84;;;5.70;81.62
8101;BME280;4093;53.470;9.832;2024-03-07T10:32:47;102679.28;;;4.73;84.56
8101;BME280;4093;53.470;9.832;2024-03-07T10:35:21;102704.94;;;5.43;83.00
8101;BME280;4093;53.470;9.832;2024-03-07T10:37:52;102681.75;;;5.64;81.21
8101;BME280;4093;53.470;9.832;2024-03-07T10:40:20;102688.28;;;5.80;81.87
8101;BME280;4093;53.470;9.832;2024-03-07T10:42:49;102657.56;;;5.83;80.90
8101;BME280;4093;53.470;9.832;2024-03-07T10:45:20;102678.78;;;6.03;82.08
8101;BME280;4093;53.470;9.832;2024-03-07T10:47:54;102668.19;;;5.68;81.35
8101;BME280;4093;53.470;9.832;2024-03-07T10:50:43;102701.34;;;6.12;81.46
8101;BME280;4093;53.470;9.832;2024-03-07T10:53:19;102677.47;;;6.14;79.63
8101;BME280;4093;53.470;9.832;2024-03-07T10:55:58;102695.69;;;6.78;79.40
8101;BME280;4093;53.470;9.832;2024-03-07T10:58:37;102693.78;;;7.01;77.96
8101;BME280;4093;53.470;9.832;2024-03-07T11:01:10;102675.63;;;6.39;79.21
8101;BME280;4093;53.470;9.832;2024-03-07T11:03:41;102691.53;;;6.83;79.55
8101;BME280;4093;53.470;9.832;2024-03-07T11:06:11;102676.75;;;6.20;79.83
8101;BME280;4093;53.470;9.832;2024-03-07T11:08:40;102661.22;;;6.15;80.81
8101;BME280;4093;53.470;9.832;2024-03-07T11:11:10;102671.50;;;6.15;80.30
8101;BME280;4093;53.470;9.832;2024-03-07T11:13:38;102677.69;;;6.49;79.78
8101;BME280;4093;53.470;9.832;2024-03-07T11:16:06;102669.25;;;5.99;81.73
8101;BME280;4093;53.470;9.832;2024-03-07T11:18:36;102692.63;;;7.51;77.30
8101;BME280;4093;53.470;9.832;2024-03-07T11:21:03;102668.69;;;7.24;78.05
8101;BME280;4093;53.470;9.832;2024-03-07T11:23:36;102647.03;;;6.84;78.47
8101;BME280;4093;53.470;9.832;2024-03-07T11:26:08;102650.50;;;6.86;78.90
8101;BME280;4093;53.470;9.832;2024-03-07T11:28:38;102648.88;;;6.32;81.36
8101;BME280;4093;53.470;9.832;2024-03-07T11:31:08;102672.47;;;7.05;80.48
8101;BME280;4093;53.470;9.832;2024-03-07T11:33:37;102646.19;;;6.28;82.43
8101;BME280;4093;53.470;9.832;2024-03-07T11:36:07;102650.97;;;6.44;81.28
8101;BME280;4093;53.470;9.832;2024-03-07T11:38:37;102667.22;;;7.02;80.58
8101;BME280;4093;53.470;9.832;2024-03-07T11:41:04;102649.78;;;6.61;81.88
8101;BME280;4093;53.470;9.832;2024-03-07T11:43:39;102652.69;;;7.02;80.40
8101;BME280;4093;53.470;9.832;2024-03-07T11:46:08;102654.41;;;7.33;79.62
8101;BME280;4093;53.470;9.832;2024-03-07T11:48:39;102652.22;;;7.82;76.89
8101;BME280;4093;53.470;9.832;2024-03-07T11:51:12;102635.31;;;6.95;80.72
8101;BME280;4093;53.470;9.832;2024-03-07T11:53:41;102639.03;;;6.75;81.69
8101;BME280;4093;53.470;9.832;2024-03-07T11:56:09;102640.78;;;6.76;80.98
8101;BME280;4093;53.470;9.832;2024-03-07T11:58:43;102597.03;;;6.17;82.96
8101;BME280;4093;53.470;9.832;2024-03-07T12:01:12;102653.09;;;7.82;79.66
8101;BME280;4093;53.470;9.832;2024-03-07T12:03:40;102647.03;;;8.15;76.47
8101;BME280;4093;53.470;9.832;2024-03-07T12:06:09;102612.25;;;7.30;79.07
8101;BME280;4093;53.470;9.832;2024-03-07T12:08:39;102614.06;;;6.70;81.16
8101;BME280;4093;53.470;9.832;2024-03-07T12:11:09;102634.22;;;7.17;81.54
8101;BME280;4093;53.470;9.832;2024-03-07T12:13:42;102621.19;;;7.11;80.05
8101;BME280;4093;53.470;9.832;2024-03-07T12:16:09;102633.78;;;7.32;80.89
8101;BME280;4093;53.470;9.832;2024-03-07T12:18:37;102620.06;;;6.41;82.46
8101;BME280;4093;53.470;9.832;2024-03-07T12:21:05;102606.38;;;6.42;82.84
8101;BME280;4093;53.470;9.832;2024-03-07T12:23:37;102632.19;;;7.70;79.76
8101;BME280;4093;53.470;9.832;2024-03-07T12:26:06;102610.78;;;7.06;81.77
8101;BME280;4093;53.470;9.832;2024-03-07T12:28:35;102620.03;;;7.64;78.47
8101;BME280;4093;53.470;9.832;2024-03-07T12:31:05;102625.53;;;8.15;77.53
8101;BME280;4093;53.470;9.832;2024-03-07T12:33:43;102612.94;;;7.91;79.12
8101;BME280;4093;53.470;9.832;2024-03-07T12:36:14;102606.41;;;8.05;77.93
8101;BME280;4093;53.470;9.832;2024-03-07T12:38:43;102602.59;;;7.89;78.35
8101;BME280;4093;53.470;9.832;2024-03-07T12:41:11;102610.59;;;8.00;78.82
8101;BME280;4093;53.470;9.832;2024-03-07T12:43:44;102601.88;;;8.31;76.26
8101;BME280;4093;53.470;9.832;2024-03-07T12:46:13;102566.47;;;7.16;80.16
8101;BME280;4093;53.470;9.832;2024-03-07T12:48:42;102592.91;;;8.15;77.18
8101;BME280;4093;53.470;9.832;2024-03-07T12:51:11;102588.72;;;8.20;77.63
8101;BME280;4093;53.470;9.832;2024-03-07T12:53:46;102586.53;;;8.37;75.81
8101;BME280;4093;53.470;9.832;2024-03-07T12:56:14;102576.31;;;8.02;77.70
8101;BME280;4093;53.470;9.832;2024-03-07T12:58:47;102580.56;;;8.38;77.20
8101;BME280;4093;53.470;9.832;2024-03-07T13:01:17;102593.25;;;9.64;74.21
8101;BME280;4093;53.470;9.832;2024-03-07T13:03:47;102556.34;;;8.31;75.15
8101;BME280;4093;53.470;9.832;2024-03-07T13:06:16;102573.81;;;8.43;77.03
8101;BME280;4093;53.470;9.832;2024-03-07T13:08:46;102559.81;;;7.94;77.59
8101;BME280;4093;53.470;9.832;2024-03-07T13:11:14;102569.94;;;8.24;77.97
8101;BME280;4093;53.470;9.832;2024-03-07T13:13:42;102571.44;;;8.54;75.84
8101;BME280;4093;53.470;9.832;2024-03-07T13:16:11;102555.03;;;7.73;78.33
8101;BME280;4093;53.470;9.832;2024-03-07T13:18:39;102552.69;;;7.48;79.28
8101;BME280;4093;53.470;9.832;2024-03-07T13:21:07;102564.31;;;7.67;79.17
8101;BME280;4093;53.470;9.832;2024-03-07T13:23:37;102557.03;;;7.85;79.10
8101;BME280;4093;53.470;9.832;2024-03-07T13:26:07;102567.97;;;8.13;78.79
8101;BME280;4093;53.470;9.832;2024-03-07T13:28:43;102570.78;;;9.08;74.61
8101;BME280;4093;53.470;9.832;2024-03-07T13:31:13;102560.53;;;8.67;76.12
8101;BME280;4093;53.470;9.832;2024-03-07T13:33:43;102549.38;;;8.27;76.30